sensor_id;sensor_type;location;lat;lon;timestamp;P1;durP1;ratioP1;P2;durP2;ratioP2
20314;SDS011;10315;50.958;13.080;2023-04-24T00:08:32;12.27;;;5.57;;
20314;SDS011;10315;50.958;13.080;2023-04-24T00:18:35;3.53;;;2.10;;
20314;SDS011;10315;50.958;13.080;2023-04-24T00:28:37;2.63;;;1.07;;
20314;SDS011;10315;50.958;13.080;2023-04-24T00:38:40;0.83;;;0.77;;
20314;SDS011;10315;50.958;13.080;2023-04-24T00:48:41;1.10;;;1.00;;
20314;SDS011;10315;50.958;13.080;2023-04-24T00:58:45;0.97;;;0.97;;
20314;SDS011;10315;50.958;13.080;2023-04-24T01:08:47;1.00;;;1.00;;
20314;SDS011;10315;50.958;13.080;2023-04-24T01:18:50;1.40;;;0.80;;
20314;SDS011;10315;50.958;13.080;2023-04-24T01:28:53;1.90;;;1.13;;
20314;SDS011;10315;50.958;13.080;2023-04-24T01:38:55;1.00;;;0.93;;
20314;SDS011;10315;50.958;13.080;2023-04-24T01:48:59;1.00;;;1.00;;
20314;SDS011;10315;50.958;13.080;2023-04-24T01:59:01;1.30;;;1.20;;
20314;SDS011;10315;50.958;13.080;2023-04-24T02:09:05;1.30;;;1.20;;
20314;SDS011;10315;50.958;13.080;2023-04-24T02:19:07;1.67;;;1.03;;
20314;SDS011;10315;50.958;13.080;2023-04-24T02:29:10;2.57;;;1.10;;
20314;SDS011;10315;50.958;13.080;2023-04-24T02:39:12;4.97;;;1.40;;
20314;SDS011;10315;50.958;13.080;2023-04-24T02:49:15;1.37;;;1.00;;
20314;SDS011;10315;50.958;13.080;2023-04-24T02:59:17;1.27;;;1.10;;
20314;SDS011;10315;50.958;13.080;2023-04-24T03:09:20;1.63;;;1.40;;
20314;SDS011;10315;50.958;13.080;2023-04-24T03:19:21;1.13;;;1.03;;
20314;SDS011;10315;50.958;13.080;2023-04-24T03:29:25;1.63;;;1.17;;
20314;SDS011;10315;50.958;13.080;2023-04-24T03:39:26;4.60;;;1.40;;
20314;SDS011;10315;50.958;13.080;2023-04-24T03:49:32;1.27;;;1.23;;
20314;SDS011;10315;50.958;13.080;2023-04-24T03:59:33;1.97;;;1.57;;
20314;SDS011;10315;50.958;13.080;2023-04-24T04:09:36;2.87;;;1.23;;
20314;SDS011;10315;50.958;13.080;2023-04-24T04:19:38;2.13;;;1.57;;
20314;SDS011;10315;50.958;13.080;2023-04-24T04:29:41;1.40;;;1.30;;
20314;SDS011;10315;50.958;13.080;2023-04-24T04:39:42;2.00;;;1.80;;
20314;SDS011;10315;50.958;13.080;2023-04-24T04:49:45;3.13;;;1.70;;
20314;SDS011;10315;50.958;13.080;2023-04-24T04:59:48;2.40;;;1.80;;
20314;SDS011;10315;50.958;13.080;2023-04-24T05:09:51;4.00;;;1.60;;
20314;SDS011;10315;50.958;13.080;2023-04-24T05:19:52;2.83;;;1.60;;
20314;SDS011;10315;50.958;13.080;2023-04-24T05:29:55;4.83;;;1.57;;
20314;SDS011;10315;50.958;13.080;2023-04-24T05:39:57;2.17;;;1.70;;
20314;SDS011;10315;50.958;13.080;2023-04-24T05:49:59;1.47;;;1.30;;
20314;SDS011;10315;50.958;13.080;2023-04-24T06:00:01;2.07;;;1.10;;
20314;SDS011;10315;50.958;13.080;2023-04-24T06:10:05;2.50;;;1.20;;
20314;SDS011;10315;50.958;13.080;2023-04-24T06:20:08;5.23;;;1.20;;
20314;SDS011;10315;50.958;13.080;2023-04-24T06:30:12;2.80;;;1.00;;
20314;SDS011;10315;50.958;13.080;2023-04-24T06:40:14;0.70;;;0.70;;
20314;SDS011;10315;50.958;13.080;2023-04-24T06:50:17;3.03;;;1.13;;
20314;SDS011;10315;50.958;13.080;2023-04-24T07:00:18;2.53;;;0.97;;
20314;SDS011;10315;50.958;13.080;2023-04-24T07:10:22;1.93;;;0.90;;
20314;SDS011;10315;50.958;13.080;2023-04-24T07:20:23;0.97;;;0.80;;
20314;SDS011;10315;50.958;13.080;2023-04-24T07:30:27;3.27;;;1.37;;
20314;SDS011;10315;50.958;13.080;2023-04-24T07:40:29;0.80;;;0.80;;
20314;SDS011;10315;50.958;13.080;2023-04-24T07:50:32;1.97;;;1.13;;
20314;SDS011;10315;50.958;13.080;2023-04-24T08:00:34;1.00;;;0.70;;
20314;SDS011;10315;50.958;13.080;2023-04-24T08:10:37;1.63;;;0.97;;
20314;SDS011;10315;50.958;13.080;2023-04-24T08:20:39;2.40;;;0.80;;
20314;SDS011;10315;50.958;13.080;2023-04-24T08:30:42;2.70;;;1.07;;
20314;SDS011;10315;50.958;13.080;2023-04-24T08:40:44;2.17;;;0.80;;
20314;SDS011;10315;50.958;13.080;2023-04-24T08:50:47;1.60;;;0.90;;
20314;SDS011;10315;50.958;13.080;2023-04-24T09:00:49;1.63;;;1.20;;
20314;SDS011;10315;50.958;13.080;2023-04-24T09:10:52;1.40;;;0.97;;
20314;SDS011;10315;50.958;13.080;2023-04-24T09:20:57;1.00;;;0.83;;
20314;SDS011;10315;50.958;13.080;2023-04-24T09:31:05;3.23;;;0.90;;
20314;SDS011;10315;50.958;13.080;2023-04-24T09:41:08;0.70;;;0.70;;
20314;SDS011;10315;50.958;13.080;2023-04-24T09:51:19;2.15;;;0.75;;
20314;SDS011;10315;50.958;13.080;2023-04-24T10:01:35;1.27;;;0.65;;
20314;SDS011;10315;50.958;13.080;2023-04-24T10:11:39;1.75;;;0.98;;
20314;SDS011;10315;50.958;13.080;2023-04-24T10:21:44;1.48;;;0.70;;
20314;SDS011;10315;50.958;13.080;2023-04-24T10:31:48;0.82;;;0.57;;
20314;SDS011;10315;50.958;13.080;2023-04-24T10:41:49;1.02;;;0.65;;
20314;SDS011;10315;50.958;13.080;2023-04-24T10:51:53;0.70;;;0.70;;
20314;SDS011;10315;50.958;13.080;2023-04-24T11:01:56;1.20;;;0.75;;
20314;SDS011;10315;50.958;13.080;2023-04-24T11:12:06;2.78;;;0.90;;
20314;SDS011;10315;50.958;13.080;2023-04-24T11:22:13;1.77;;;0.65;;
20314;SDS011;10315;50.958;13.080;2023-04-24T11:32:19;2.72;;;0.80;;
20314;SDS011;10315;50.958;13.080;2023-04-24T11:42:26;0.70;;;0.70;;
20314;SDS011;10315;50.958;13.080;2023-04-24T11:52:30;1.13;;;0.90;;
20314;SDS011;10315;50.958;13.080;2023-04-24T12:02:32;1.30;;;0.75;;
20314;SDS011;10315;50.958;13.080;2023-04-24T12:12:35;0.98;;;0.95;;
20314;SDS011;10315;50.958;13.080;2023-04-24T12:22:43;0.98;;;0.80;;
20314;SDS011;10315;50.958;13.080;2023-04-24T12:32:56;0.90;;;0.85;;
20314;SDS011;10315;50.958;13.080;2023-04-24T12:43:00;0.85;;;0.70;;
20314;SDS011;10315;50.958;13.080;2023-04-24T12:53:03;0.70;;;0.70;;
20314;SDS011;10315;50.958;13.080;2023-04-24T13:03:04;0.80;;;0.80;;
20314;SDS011;10315;50.958;13.080;2023-04-24T13:13:07;1.05;;;1.00;;
20314;SDS011;10315;50.958;13.080;2023-04-24T13:23:09;1.73;;;0.85;;
20314;SDS011;10315;50.958;13.080;2023-04-24T13:33:13;2.42;;;0.98;;
20314;SDS011;10315;50.958;13.080;2023-04-24T13:43:14;3.95;;;1.10;;
20314;SDS011;10315;50.958;13.080;2023-04-24T13:53:17;2.75;;;0.93;;
20314;SDS011;10315;50.958;13.080;2023-04-24T14:03:19;3.25;;;1.10;;
20314;SDS011;10315;50.958;13.080;2023-04-24T14:13:22;1.50;;;0.80;;
20314;SDS011;10315;50.958;13.080;2023-04-24T14:23:24;0.83;;;0.83;;
20314;SDS011;10315;50.958;13.080;2023-04-24T14:33:27;1.15;;;1.00;;
20314;SDS011;10315;50.958;13.080;2023-04-24T14:43:29;0.83;;;0.83;;
20314;SDS011;10315;50.958;13.080;2023-04-24T14:53:32;1.13;;;1.10;;
20314;SDS011;10315;50.958;13.080;2023-04-24T15:03:33;0.87;;;0.83;;
20314;SDS011;10315;50.958;13.080;2023-04-24T15:13:36;1.87;;;1.20;;
20314;SDS011;10315;50.958;13.080;2023-04-24T15:23:38;0.77;;;0.77;;
20314;SDS011;10315;50.958;13.080;2023-04-24T15:33:43;3.30;;;1.00;;
20314;SDS011;10315;50.958;13.080;2023-04-24T15:43:45;1.25;;;0.70;;
20314;SDS011;10315;50.958;13.080;2023-04-24T15:53:47;2.27;;;0.83;;
20314;SDS011;10315;50.958;13.080;2023-04-24T16:03:49;1.07;;;0.97;;
20314;SDS011;10315;50.958;13.080;2023-04-24T16:13:54;1.20;;;1.10;;
20314;SDS011;10315;50.958;13.080;2023-04-24T16:23:56;6.93;;;4.70;;
20314;SDS011;10315;50.958;13.080;2023-04-24T16:33:59;2.20;;;1.83;;
20314;SDS011;10315;50.958;13.080;2023-04-24T16:44:00;1.03;;;0.70;;
20314;SDS011;10315;50.958;13.080;2023-04-24T16:54:03;0.73;;;0.70;;
20314;SDS011;10315;50.958;13.080;2023-04-24T17:04:05;1.17;;;1.00;;
20314;SDS011;10315;50.958;13.080;2023-04-24T17:14:08;0.90;;;0.90;;
20314;SDS011;10315;50.958;13.080;2023-04-24T17:24:10;1.10;;;1.00;;
20314;SDS011;10315;50.958;13.080;2023-04-24T17:34:13;1.07;;;0.93;;
20314;SDS011;10315;50.958;13.080;2023-04-24T17:44:14;0.97;;;0.87;;
20314;SDS011;10315;50.958;13.080;2023-04-24T17:54:17;2.00;;;0.63;;
20314;SDS011;10315;50.958;13.080;2023-04-24T18:04:19;0.90;;;0.90;;
20314;SDS011;10315;50.958;13.080;2023-04-24T18:14:22;0.77;;;0.77;;
20314;SDS011;10315;50.958;13.080;2023-04-24T18:24:24;1.60;;;1.50;;
20314;SDS011;10315;50.958;13.080;2023-04-24T18:34:27;3.37;;;2.27;;
20314;SDS011;10315;50.958;13.080;2023-04-24T18:44:32;2.60;;;1.97;;
20314;SDS011;10315;50.958;13.080;2023-04-24T18:54:35;1.60;;;1.50;;
20314;SDS011;10315;50.958;13.080;2023-04-24T19:04:36;10.33;;;7.63;;
20314;SDS011;10315;50.958;13.080;2023-04-24T19:14:39;3.43;;;2.47;;
20314;SDS011;10315;50.958;13.080;2023-04-24T19:24:41;3.77;;;2.73;;
20314;SDS011;10315;50.958;13.080;2023-04-24T19:34:44;3.40;;;2.37;;
20314;SDS011;10315;50.958;13.080;2023-04-24T19:44:46;5.27;;;2.70;;
20314;SDS011;10315;50.958;13.080;2023-04-24T19:54:48;3.23;;;2.57;;
20314;SDS011;10315;50.958;13.080;2023-04-24T20:04:51;7.20;;;2.70;;
20314;SDS011;10315;50.958;13.080;2023-04-24T20:14:54;4.83;;;3.17;;
20314;SDS011;10315;50.958;13.080;2023-04-24T20:24:55;3.73;;;2.90;;
20314;SDS011;10315;50.958;13.080;2023-04-24T20:34:58;5.47;;;2.77;;
20314;SDS011;10315;50.958;13.080;2023-04-24T20:45:03;6.67;;;2.90;;
20314;SDS011;10315;50.958;13.080;2023-04-24T20:55:08;5.90;;;3.13;;
20314;SDS011;10315;50.958;13.080;2023-04-24T21:05:10;3.77;;;2.83;;
20314;SDS011;10315;50.958;13.080;2023-04-24T21:15:12;5.20;;;3.30;;
20314;SDS011;10315;50.958;13.080;2023-04-24T21:25:14;6.63;;;3.07;;
20314;SDS011;10315;50.958;13.080;2023-04-24T21:35:17;3.17;;;2.13;;
20314;SDS011;10315;50.958;13.080;2023-04-24T21:45:19;3.50;;;2.20;;
20314;SDS011;10315;50.958;13.080;2023-04-24T21:55:25;4.07;;;2.30;;
20314;SDS011;10315;50.958;13.080;2023-04-24T22:05:27;3.60;;;2.30;;
20314;SDS011;10315;50.958;13.080;2023-04-24T22:15:31;5.03;;;2.80;;
20314;SDS011;10315;50.958;13.080;2023-04-24T22:25:32;6.27;;;3.27;;
20314;SDS011;10315;50.958;13.080;2023-04-24T22:35:35;4.73;;;3.30;;
20314;SDS011;10315;50.958;13.080;2023-04-24T22:45:40;5.67;;;3.30;;
20314;SDS011;10315;50.958;13.080;2023-04-24T22:55:43;7.33;;;3.90;;
20314;SDS011;10315;50.958;13.080;2023-04-24T23:05:45;6.10;;;3.30;;
20314;SDS011;10315;50.958;13.080;2023-04-24T23:15:48;7.90;;;3.63;;
20314;SDS011;10315;50.958;13.080;2023-04-24T23:25:50;7.10;;;3.63;;
20314;SDS011;10315;50.958;13.080;2023-04-24T23:35:52;8.57;;;4.00;;
20314;SDS011;10315;50.958;13.080;2023-04-24T23:45:54;5.73;;;3.73;;
20314;SDS011;10315;50.958;13.080;2023-04-24T23:55:57;8.53;;;4.43;;
